If you wish to contribute or participate in the discussions about articles you are invited to join SKYbrary as a registered user

 Actions

Taitung Airport

From SKYbrary Wiki

RCFN
Airport
ICAO: RCFN – IATA: TTT
Summary
Name Taitung Airport
Region Asia and Pacific
Territory Taiwan TW.gif
Location
Serving Fengnin
Elevation 43.586 m
143 ft
143 ft43.586 m
Type medium airport
Coordinates 22° 45' 17.95" N, 121° 6' 6.05" E
Runways
Designator Length Width Surface ROPS
4/22 2438 m7,998.688 ft
45 m147.638 ft
PEM yes/yes


METAR
Observation RCFN 252230Z 32005KT 9999 SCT022 SCT030 19/16 Q1019 NOSIG RMK A3010
Station Feng Nin Tw-Afb
Date/Time 25 February 2020 22:30:00
Wind direction 320°
Wind speed 05 kts
Lowest cloud amount scattered clouds
Temperature 19°C
Dew point 16°C
Humidity 82%
QNH 1019 hPa
Weather condition n/a